Canadon Seco, Argentina
Current Conditions -  °F | °C
As of 3:00 PM on Saturday 25 Oct 2014 (Local Time) from SAVC Reporting Station
Clear Clear  
Wind Chill: 81°   Ceiling: Unl
Heat Index: 81°   Visibility: 6mi
Dew Point: 30°   Wind: 17mph
Humidity: 16%   Direction: 270°W
Pressure: 29.59"   Gusts: NA
Location:  46.55°S, 67.58°W
Report Text: SAVC 251800Z 27015KT CAVOK 27/M01 Q1002
Loading
Personal Weather Stations






























Interactive Weather Map
Tropical Storm Tracking
New forecast layout! Learn more

10-Day Weather Forecast

Advertisements
Track Severe Weather on mobile